createdAt,value
2022-12-20T00:01:35.539Z,24.83
2022-12-20T00:04:05.781Z,26.30
2022-12-20T00:06:36.927Z,22.33
2022-12-20T00:09:07.080Z,27.15
2022-12-20T00:11:35.139Z,27.05
2022-12-20T00:14:02.639Z,26.45
2022-12-20T00:16:30.327Z,29.02
2022-12-20T00:19:03.527Z,27.55
2022-12-20T00:21:32.409Z,26.42
2022-12-20T00:24:00.666Z,22.45
2022-12-20T00:28:57.409Z,23.27
2022-12-20T00:31:27.080Z,27.05
2022-12-20T00:33:56.133Z,20.70
2022-12-20T00:36:26.153Z,27.10
2022-12-20T00:38:55.001Z,23.80
2022-12-20T00:41:25.319Z,21.50
2022-12-20T00:43:53.470Z,18.92
2022-12-20T00:46:26.498Z,19.23
2022-12-20T00:48:54.934Z,20.95
2022-12-20T00:51:25.962Z,23.30
2022-12-20T00:53:54.318Z,17.80
2022-12-20T00:56:22.640Z,19.17
2022-12-20T00:58:50.379Z,19.67
2022-12-20T01:01:23.965Z,18.80
2022-12-20T01:03:52.574Z,16.60
2022-12-20T01:06:20.724Z,15.13
2022-12-20T01:08:51.062Z,18.75
2022-12-20T01:11:24.699Z,20.60
2022-12-20T01:13:54.798Z,21.02
2022-12-20T01:16:25.474Z,17.20
2022-12-20T01:18:53.552Z,18.17
2022-12-20T01:21:22.476Z,22.33
2022-12-20T01:23:50.822Z,20.48
2022-12-20T01:26:20.687Z,22.15
2022-12-20T01:28:52.099Z,23.73
2022-12-20T01:31:21.127Z,14.18
2022-12-20T01:33:50.058Z,22.00
2022-12-20T01:36:20.292Z,19.17
2022-12-20T01:38:47.979Z,18.50
2022-12-20T01:41:22.441Z,17.98
2022-12-20T01:43:55.685Z,17.63
2022-12-20T01:46:26.195Z,27.00
2022-12-20T01:48:55.395Z,22.05
2022-12-20T01:51:24.723Z,29.50
2022-12-20T01:53:58.016Z,23.88
2022-12-20T01:56:25.641Z,24.58
2022-12-20T01:58:55.086Z,18.67
2022-12-20T02:01:25.160Z,22.88
2022-12-20T02:03:54.999Z,20.27
2022-12-20T02:06:26.006Z,26.50
2022-12-20T02:08:56.594Z,26.42
2022-12-20T02:11:46.333Z,21.50
2022-12-20T02:14:16.980Z,23.88
2022-12-20T02:17:12.280Z,27.48
2022-12-20T02:20:11.252Z,27.92
2022-12-20T02:23:02.540Z,23.45
2022-12-20T02:25:57.718Z,17.98
2022-12-20T02:28:30.327Z,22.48
2022-12-20T02:31:01.065Z,18.45
2022-12-20T02:33:28.981Z,15.77
2022-12-20T02:35:56.534Z,18.00
2022-12-20T02:38:34.676Z,16.58
2022-12-20T02:41:11.898Z,17.77
2022-12-20T02:44:01.849Z,16.08
2022-12-20T02:46:30.938Z,15.77
2022-12-20T02:49:04.315Z,19.45
2022-12-20T02:51:33.321Z,12.10
2022-12-20T02:54:02.400Z,12.25
2022-12-20T02:56:42.819Z,16.95
2022-12-20T02:59:36.258Z,12.77
2022-12-20T03:02:05.404Z,25.85
2022-12-20T03:04:37.610Z,22.10
2022-12-20T03:07:08.427Z,20.38
2022-12-20T03:09:39.657Z,26.40
2022-12-20T03:12:08.459Z,22.33
2022-12-20T03:14:41.103Z,21.50
2022-12-20T03:17:10.696Z,27.10
2022-12-20T03:19:38.975Z,26.83
2022-12-20T03:22:06.699Z,24.92
2022-12-20T03:24:34.550Z,23.70
2022-12-20T03:27:06.637Z,25.60
2022-12-20T03:29:34.141Z,17.10
2022-12-20T03:32:01.809Z,18.45
2022-12-20T03:34:29.923Z,24.67
2022-12-20T03:36:57.440Z,29.40
2022-12-20T03:39:25.201Z,33.38
2022-12-20T03:41:54.540Z,25.50
2022-12-20T03:44:22.028Z,25.90
2022-12-20T03:46:50.475Z,30.35
2022-12-20T03:49:18.578Z,24.48
2022-12-20T03:51:50.836Z,22.70
2022-12-20T03:54:18.989Z,25.40
2022-12-20T03:57:07.381Z,23.05
2022-12-20T03:59:35.654Z,25.92
2022-12-20T04:02:05.909Z,32.70
2022-12-20T04:04:34.712Z,28.90
2022-12-20T04:07:02.181Z,28.33
2022-12-20T04:09:29.809Z,28.95
2022-12-20T04:12:04.897Z,35.45
2022-12-20T04:14:34.279Z,25.27
2022-12-20T04:17:01.805Z,29.08
2022-12-20T04:19:29.384Z,34.08
2022-12-20T04:22:04.791Z,28.25
2022-12-20T04:24:44.051Z,29.13
2022-12-20T04:27:20.415Z,35.30
2022-12-20T04:29:47.985Z,32.88
2022-12-20T04:32:21.240Z,32.38
2022-12-20T04:34:50.039Z,35.72
2022-12-20T04:37:18.698Z,25.40
2022-12-20T04:39:51.012Z,22.27
2022-12-20T04:42:21.785Z,20.40
2022-12-20T04:44:50.927Z,23.23
2022-12-20T04:47:24.297Z,30.33
2022-12-20T04:49:53.430Z,35.10
2022-12-20T04:52:43.581Z,37.00
2022-12-20T04:55:15.228Z,39.97
2022-12-20T04:57:42.792Z,32.40
2022-12-20T05:00:11.376Z,35.72
2022-12-20T05:02:43.672Z,41.83
2022-12-20T05:05:15.344Z,39.72
2022-12-20T05:07:48.896Z,35.50
2022-12-20T05:10:16.491Z,40.70
2022-12-20T05:12:45.189Z,31.80
2022-12-20T05:15:21.081Z,34.80
2022-12-20T05:17:48.730Z,43.15
2022-12-20T05:20:16.630Z,22.67
2022-12-20T05:23:05.268Z,37.08
2022-12-20T05:25:54.135Z,31.23
2022-12-20T05:28:22.257Z,33.88
2022-12-20T05:30:50.116Z,37.58
2022-12-20T05:33:17.776Z,28.25
2022-12-20T05:35:45.278Z,42.22
2022-12-20T05:38:15.322Z,30.00
2022-12-20T05:40:43.337Z,30.58
2022-12-20T05:43:12.164Z,29.67
2022-12-20T05:45:50.041Z,28.35
2022-12-20T05:48:21.880Z,24.17
2022-12-20T05:50:50.082Z,23.42
2022-12-20T05:53:24.929Z,26.50
2022-12-20T05:55:55.591Z,33.47
2022-12-20T05:58:28.760Z,21.88
2022-12-20T06:01:02.380Z,27.55
2022-12-20T06:03:32.327Z,25.00
2022-12-20T06:06:01.160Z,24.83
2022-12-20T06:08:32.170Z,24.38
2022-12-20T06:11:04.897Z,18.67
2022-12-20T06:13:37.287Z,24.95
2022-12-20T06:16:05.057Z,26.30
2022-12-20T06:18:34.004Z,25.42
2022-12-20T06:21:03.847Z,23.85
2022-12-20T06:23:34.318Z,25.05
2022-12-20T06:26:11.244Z,32.23
2022-12-20T06:28:52.218Z,32.75
2022-12-20T06:31:25.621Z,24.00
2022-12-20T06:33:55.001Z,27.23
2022-12-20T06:36:25.166Z,35.65
2022-12-20T06:38:58.347Z,23.60
2022-12-20T06:41:25.930Z,32.10
2022-12-20T06:43:54.507Z,29.10
2022-12-20T06:46:22.061Z,24.80
2022-12-20T06:48:50.662Z,37.00
2022-12-20T06:51:19.121Z,33.50
2022-12-20T06:53:47.347Z,30.55
2022-12-20T06:56:15.093Z,27.45
2022-12-20T06:58:42.818Z,22.33
2022-12-20T07:01:10.308Z,29.73
2022-12-20T07:03:37.877Z,33.08
2022-12-20T07:06:05.611Z,34.08
2022-12-20T07:08:33.071Z,28.73
2022-12-20T07:11:10.517Z,32.60
2022-12-20T07:13:46.301Z,34.80
2022-12-20T07:16:19.506Z,25.45
2022-12-20T07:19:25.046Z,20.83
2022-12-20T07:22:14.424Z,37.58
2022-12-20T07:25:02.452Z,32.43
2022-12-20T07:27:34.148Z,30.45
2022-12-20T07:30:10.752Z,22.75
2022-12-20T07:32:59.775Z,15.60
2022-12-20T07:35:39.395Z,8.88
2022-12-20T07:38:12.291Z,4.22
2022-12-20T07:40:45.573Z,2.35
2022-12-20T07:43:15.640Z,1.15
2022-12-20T07:45:57.377Z,1.35
2022-12-20T07:48:29.157Z,1.75
2022-12-20T07:51:36.312Z,1.10
2022-12-20T07:54:23.560Z,4.55
2022-12-20T07:56:59.321Z,1.58
2022-12-20T07:59:36.421Z,0.65
2022-12-20T08:02:19.014Z,1.13
2022-12-20T08:05:09.268Z,1.15
2022-12-20T08:07:39.546Z,0.50
2022-12-20T08:10:14.268Z,1.58
2022-12-20T08:12:49.680Z,1.85
2022-12-20T08:15:40.315Z,3.25
2022-12-20T08:18:07.991Z,1.90
2022-12-20T08:20:35.733Z,2.15
2022-12-20T08:23:05.642Z,1.88
2022-12-20T08:25:41.131Z,4.28
2022-12-20T08:28:11.976Z,1.65
2022-12-20T08:30:42.258Z,1.17
2022-12-20T08:33:19.504Z,4.05
2022-12-20T08:35:56.646Z,2.15
2022-12-20T08:38:28.395Z,3.63
2022-12-20T08:41:01.758Z,2.83
2022-12-20T08:43:31.834Z,4.57
2022-12-20T08:46:48.902Z,1.00
2022-12-20T08:49:21.637Z,1.25
2022-12-20T08:51:51.965Z,2.08
2022-12-20T08:54:25.160Z,1.65
2022-12-20T08:56:58.136Z,7.93
2022-12-20T08:59:28.631Z,5.60
2022-12-20T09:01:56.475Z,8.70
2022-12-20T09:04:29.791Z,4.40
2022-12-20T09:06:57.378Z,4.72
2022-12-20T09:09:25.022Z,7.47
2022-12-20T09:11:54.997Z,6.15
2022-12-20T09:14:23.752Z,10.25
2022-12-20T09:16:51.414Z,6.25
2022-12-20T09:19:21.462Z,3.63
2022-12-20T09:21:49.170Z,8.70
2022-12-20T09:24:19.477Z,7.60
2022-12-20T09:26:50.554Z,5.05
2022-12-20T09:29:28.244Z,6.32
2022-12-20T09:31:59.828Z,9.63
2022-12-20T09:34:30.486Z,3.78
2022-12-20T09:37:01.266Z,11.40
2022-12-20T09:39:52.351Z,15.55
2022-12-20T09:42:25.454Z,8.32
2022-12-20T09:45:12.460Z,14.63
2022-12-20T09:50:12.135Z,12.02
2022-12-20T09:52:25.222Z,17.48
2022-12-20T09:59:22.324Z,12.65
2022-12-20T10:01:54.110Z,12.63
2022-12-20T10:04:55.407Z,14.77
2022-12-20T10:08:03.420Z,13.15
2022-12-20T10:11:22.914Z,14.40
2022-12-20T10:14:50.034Z,14.55
2022-12-20T10:17:38.023Z,8.43
2022-12-20T10:20:44.617Z,9.68
2022-12-20T10:23:41.661Z,14.73
2022-12-20T10:26:12.599Z,9.80
2022-12-20T10:28:45.955Z,15.15
2022-12-20T10:31:22.068Z,15.98
2022-12-20T10:33:50.006Z,12.82
2022-12-20T10:39:10.185Z,18.45
2022-12-20T10:41:40.713Z,20.80
2022-12-20T10:44:32.174Z,20.73
2022-12-20T10:47:50.937Z,20.95
2022-12-20T10:50:27.715Z,23.02
2022-12-20T10:53:45.750Z,19.92
2022-12-20T10:56:39.041Z,18.33
2022-12-20T10:59:18.875Z,17.65
2022-12-20T11:01:51.765Z,17.33
2022-12-20T11:04:49.433Z,25.45
2022-12-20T11:07:27.886Z,15.65
2022-12-20T11:10:00.484Z,24.42
2022-12-20T11:12:28.318Z,21.25
2022-12-20T11:15:33.615Z,17.30
2022-12-20T11:19:30.900Z,18.58
2022-12-20T11:23:12.445Z,16.80
2022-12-20T11:27:03.738Z,22.13
2022-12-20T11:29:56.064Z,15.20
2022-12-20T11:33:12.442Z,16.38
2022-12-20T11:44:23.914Z,19.85
2022-12-20T11:48:05.479Z,22.67
2022-12-20T11:51:40.215Z,22.95
2022-12-20T11:55:43.132Z,23.55
2022-12-20T11:59:35.666Z,22.38
2022-12-20T12:10:53.304Z,23.88
2022-12-20T12:18:19.779Z,16.23
2022-12-20T12:22:49.065Z,22.23
2022-12-20T12:38:58.442Z,29.65
2022-12-20T12:57:48.710Z,32.25
2022-12-20T13:01:28.475Z,28.17
2022-12-20T13:05:10.374Z,27.98
2022-12-20T13:09:24.280Z,28.85
2022-12-20T13:15:46.962Z,25.23
2022-12-20T13:27:35.808Z,27.00
2022-12-20T13:30:54.218Z,25.50
2022-12-20T13:34:00.522Z,24.55
2022-12-20T13:38:41.321Z,28.52
2022-12-20T13:40:42.578Z,36.65
2022-12-20T13:47:54.228Z,26.77
2022-12-20T13:50:57.320Z,32.90
2022-12-20T13:57:46.833Z,25.73
2022-12-20T14:01:19.754Z,30.60
2022-12-20T14:05:13.260Z,29.40
2022-12-20T14:08:43.819Z,26.92
2022-12-20T14:16:09.021Z,24.52
2022-12-20T14:18:56.968Z,29.50
2022-12-20T14:27:45.933Z,28.50
2022-12-20T14:30:28.483Z,27.70
2022-12-20T14:34:47.059Z,27.95
2022-12-20T14:38:06.318Z,31.70
2022-12-20T14:45:51.179Z,28.73
2022-12-20T14:48:46.229Z,28.38
2022-12-20T14:53:29.977Z,32.30
2022-12-20T14:57:00.840Z,33.30
2022-12-20T15:13:08.214Z,32.92
2022-12-20T15:16:56.760Z,32.88
2022-12-20T15:24:02.035Z,33.58
2022-12-20T15:42:07.377Z,28.95
2022-12-20T15:45:54.584Z,35.95
2022-12-20T15:49:08.460Z,30.65
2022-12-20T15:52:17.396Z,32.55
2022-12-20T16:15:28.838Z,35.63
2022-12-20T16:27:03.737Z,48.72
2022-12-20T16:34:12.675Z,39.80
2022-12-20T16:41:46.980Z,51.38
2022-12-20T16:45:29.864Z,44.33
2022-12-20T17:00:44.329Z,45.95
2022-12-20T17:12:32.482Z,49.47
2022-12-20T17:16:09.888Z,41.70
2022-12-20T17:20:05.462Z,45.97
2022-12-20T17:22:55.079Z,34.30
2022-12-20T17:26:50.053Z,52.97
2022-12-20T17:29:57.664Z,50.60
2022-12-20T17:32:39.862Z,45.92
2022-12-20T17:36:12.234Z,54.60
2022-12-20T17:44:06.093Z,42.30
2022-12-20T17:50:02.347Z,42.60
2022-12-20T17:53:38.280Z,50.28
2022-12-20T17:56:57.322Z,49.97
2022-12-20T17:59:49.601Z,50.10
2022-12-20T18:03:45.001Z,49.40
2022-12-20T18:07:12.732Z,45.53
2022-12-20T18:22:30.860Z,49.70
2022-12-20T18:29:51.544Z,52.28
2022-12-20T18:32:35.315Z,52.67
2022-12-20T18:36:16.643Z,57.58
2022-12-20T18:45:22.006Z,51.08
2022-12-20T18:57:19.640Z,45.63
2022-12-20T19:09:26.263Z,68.50
2022-12-20T19:13:09.501Z,61.80
2022-12-20T20:01:25.196Z,61.58
2022-12-20T20:03:55.179Z,61.83
2022-12-20T20:06:23.227Z,76.35
2022-12-20T20:08:51.498Z,78.68
2022-12-20T20:13:47.331Z,55.72
2022-12-20T20:16:22.261Z,67.38
2022-12-20T20:18:51.456Z,59.10
2022-12-20T20:21:22.571Z,63.95
2022-12-20T20:23:51.772Z,59.85
2022-12-20T20:26:22.732Z,60.53
2022-12-20T20:28:50.536Z,63.33
2022-12-20T20:31:19.952Z,74.55
2022-12-20T20:33:48.059Z,56.90
2022-12-20T20:38:44.529Z,45.22
2022-12-20T20:41:12.636Z,65.57
2022-12-20T20:46:14.217Z,53.30
2022-12-20T20:48:42.723Z,64.40
2022-12-20T20:51:11.017Z,55.15
2022-12-20T20:53:39.416Z,61.95
2022-12-20T20:56:08.459Z,63.05
2022-12-20T20:58:36.792Z,60.78
2022-12-20T21:01:08.496Z,60.25
2022-12-20T21:03:37.253Z,63.67
2022-12-20T21:08:56.450Z,44.55
2022-12-20T21:11:24.421Z,60.58
2022-12-20T21:13:53.494Z,59.50
2022-12-20T21:16:22.515Z,62.85
2022-12-20T21:18:55.114Z,53.90
2022-12-20T21:21:24.485Z,72.30
2022-12-20T21:23:53.454Z,57.60
2022-12-20T21:26:22.410Z,57.13
2022-12-20T21:28:49.897Z,66.60
2022-12-20T21:31:19.500Z,57.60
2022-12-20T21:33:47.235Z,58.10
2022-12-20T21:36:17.417Z,59.10
2022-12-20T21:38:53.647Z,49.95
2022-12-20T21:41:23.459Z,62.53
2022-12-20T21:43:51.584Z,66.28
2022-12-20T21:46:19.131Z,63.95
2022-12-20T21:48:47.084Z,72.38
2022-12-20T21:53:47.238Z,51.40
2022-12-20T21:56:15.718Z,64.07
2022-12-20T21:58:44.021Z,64.72
2022-12-20T22:01:14.219Z,69.47
2022-12-20T22:03:42.626Z,80.93
2022-12-20T22:06:10.735Z,63.30
2022-12-20T22:08:38.267Z,68.75
2022-12-20T22:11:13.283Z,57.72
2022-12-20T22:13:42.310Z,62.67
2022-12-20T22:16:12.220Z,56.00
2022-12-20T22:18:48.224Z,51.80
2022-12-20T22:21:16.675Z,62.55
2022-12-20T22:23:44.191Z,74.07
2022-12-20T22:26:14.687Z,62.05
2022-12-20T22:28:54.018Z,68.43
2022-12-20T22:31:22.236Z,63.15
2022-12-20T22:33:51.591Z,66.05
2022-12-20T22:36:19.650Z,60.80
2022-12-20T22:38:48.230Z,45.83
2022-12-20T22:41:22.989Z,59.25
2022-12-20T22:43:50.578Z,62.75
2022-12-20T22:46:18.902Z,51.85
2022-12-20T22:48:46.963Z,63.83
2022-12-20T22:51:16.917Z,65.15
2022-12-20T22:53:45.407Z,54.10
2022-12-20T22:56:14.436Z,48.83
2022-12-20T22:58:42.112Z,56.47
2022-12-20T23:01:12.734Z,61.15
2022-12-20T23:03:40.894Z,66.63
2022-12-20T23:06:11.410Z,62.97
2022-12-20T23:08:39.389Z,62.08
2022-12-20T23:11:38.545Z,51.88
2022-12-20T23:14:29.062Z,56.28
2022-12-20T23:16:58.055Z,48.38
2022-12-20T23:22:11.737Z,54.15
2022-12-20T23:24:39.215Z,63.35
2022-12-20T23:27:06.614Z,58.60
2022-12-20T23:29:34.146Z,54.65
2022-12-20T23:32:01.846Z,52.25
2022-12-20T23:34:29.360Z,48.30
2022-12-20T23:36:56.764Z,49.88
2022-12-20T23:39:24.199Z,48.03
2022-12-20T23:41:51.732Z,54.65
2022-12-20T23:44:19.411Z,61.10
2022-12-20T23:46:46.837Z,65.88
2022-12-20T23:49:14.318Z,62.53
2022-12-20T23:51:42.603Z,51.75
2022-12-20T23:56:38.378Z,56.33
2022-12-20T23:59:05.855Z,58.45
